sensor_id;sensor_type;location;lat;lon;timestamp;temperature;humidity
72202;SHT30;60105;54.956;73.412;2022-12-18T00:01:34;-14.09;69.23
72202;SHT30;60105;54.956;73.412;2022-12-18T00:04:03;-14.00;68.92
72202;SHT30;60105;54.956;73.412;2022-12-18T00:06:32;-14.00;68.89
72202;SHT30;60105;54.956;73.412;2022-12-18T00:09:03;-13.99;68.62
72202;SHT30;60105;54.956;73.412;2022-12-18T00:11:35;-14.01;68.77
72202;SHT30;60105;54.956;73.412;2022-12-18T00:14:01;-13.99;68.81
72202;SHT30;60105;54.956;73.412;2022-12-18T00:16:28;-13.93;68.67
72202;SHT30;60105;54.956;73.412;2022-12-18T00:18:57;-13.86;68.47
72202;SHT30;60105;54.956;73.412;2022-12-18T00:21:23;-13.89;68.20
72202;SHT30;60105;54.956;73.412;2022-12-18T00:23:50;-13.91;68.45
72202;SHT30;60105;54.956;73.412;2022-12-18T00:26:19;-13.95;68.71
72202;SHT30;60105;54.956;73.412;2022-12-18T00:28:46;-13.94;68.75
72202;SHT30;60105;54.956;73.412;2022-12-18T00:31:17;-13.93;68.36
72202;SHT30;60105;54.956;73.412;2022-12-18T00:33:50;-13.99;68.94
72202;SHT30;60105;54.956;73.412;2022-12-18T00:36:30;-13.97;69.24
72202;SHT30;60105;54.956;73.412;2022-12-18T00:38:58;-13.94;69.01
72202;SHT30;60105;54.956;73.412;2022-12-18T00:41:25;-13.97;69.33
72202;SHT30;60105;54.956;73.412;2022-12-18T00:44:12;-14.07;69.01
72202;SHT30;60105;54.956;73.412;2022-12-18T00:46:45;-14.00;69.31
72202;SHT30;60105;54.956;73.412;2022-12-18T00:49:12;-14.01;69.42
72202;SHT30;60105;54.956;73.412;2022-12-18T00:51:43;-14.00;69.37
72202;SHT30;60105;54.956;73.412;2022-12-18T00:54:14;-14.04;69.24
72202;SHT30;60105;54.956;73.412;2022-12-18T00:56:41;-13.95;68.90
72202;SHT30;60105;54.956;73.412;2022-12-18T00:59:07;-14.03;68.75
72202;SHT30;60105;54.956;73.412;2022-12-18T01:01:33;-14.09;68.85
72202;SHT30;60105;54.956;73.412;2022-12-18T01:04:01;-14.04;68.85
72202;SHT30;60105;54.956;73.412;2022-12-18T01:06:28;-14.03;68.74
72202;SHT30;60105;54.956;73.412;2022-12-18T01:08:55;-14.07;68.91
72202;SHT30;60105;54.956;73.412;2022-12-18T01:11:22;-14.10;68.63
72202;SHT30;60105;54.956;73.412;2022-12-18T01:13:48;-14.00;68.81
72202;SHT30;60105;54.956;73.412;2022-12-18T01:16:15;-14.10;68.73
72202;SHT30;60105;54.956;73.412;2022-12-18T01:18:42;-14.04;68.77
72202;SHT30;60105;54.956;73.412;2022-12-18T01:21:11;-13.95;68.64
72202;SHT30;60105;54.956;73.412;2022-12-18T01:23:37;-14.06;68.31
72202;SHT30;60105;54.956;73.412;2022-12-18T01:26:08;-14.11;68.59
72202;SHT30;60105;54.956;73.412;2022-12-18T01:28:37;-14.01;68.73
72202;SHT30;60105;54.956;73.412;2022-12-18T01:33:42;-13.86;68.09
72202;SHT30;60105;54.956;73.412;2022-12-18T01:36:13;-13.90;68.10
72202;SHT30;60105;54.956;73.412;2022-12-18T01:38:41;-13.87;68.02
72202;SHT30;60105;54.956;73.412;2022-12-18T01:41:11;-13.94;68.08
72202;SHT30;60105;54.956;73.412;2022-12-18T01:43:57;-13.99;68.23
72202;SHT30;60105;54.956;73.412;2022-12-18T01:46:25;-13.86;68.07
72202;SHT30;60105;54.956;73.412;2022-12-18T01:48:58;-13.83;67.89
72202;SHT30;60105;54.956;73.412;2022-12-18T01:51:28;-13.91;67.92
72202;SHT30;60105;54.956;73.412;2022-12-18T01:53:56;-13.87;68.18
72202;SHT30;60105;54.956;73.412;2022-12-18T01:56:23;-13.99;68.83
72202;SHT30;60105;54.956;73.412;2022-12-18T01:58:59;-13.95;68.77
72202;SHT30;60105;54.956;73.412;2022-12-18T02:01:28;-13.93;68.84
72202;SHT30;60105;54.956;73.412;2022-12-18T02:03:56;-13.95;68.68
72202;SHT30;60105;54.956;73.412;2022-12-18T02:06:41;-13.86;68.69
72202;SHT30;60105;54.956;73.412;2022-12-18T02:09:13;-13.79;68.30
72202;SHT30;60105;54.956;73.412;2022-12-18T02:14:36;-13.90;69.04
72202;SHT30;60105;54.956;73.412;2022-12-18T02:25:03;-13.87;68.62
72202;SHT30;60105;54.956;73.412;2022-12-18T02:27:32;-13.97;69.13
72202;SHT30;60105;54.956;73.412;2022-12-18T02:30:06;-13.91;69.57
72202;SHT30;60105;54.956;73.412;2022-12-18T02:32:37;-13.87;69.29
72202;SHT30;60105;54.956;73.412;2022-12-18T02:35:06;-13.76;68.73
72202;SHT30;60105;54.956;73.412;2022-12-18T02:37:44;-13.83;68.74
72202;SHT30;60105;54.956;73.412;2022-12-18T02:40:14;-13.77;68.49
72202;SHT30;60105;54.956;73.412;2022-12-18T02:42:41;-13.91;68.53
72202;SHT30;60105;54.956;73.412;2022-12-18T02:45:14;-13.87;68.82
72202;SHT30;60105;54.956;73.412;2022-12-18T02:47:43;-13.89;68.53
72202;SHT30;60105;54.956;73.412;2022-12-18T02:50:41;-13.86;69.08
72202;SHT30;60105;54.956;73.412;2022-12-18T02:56:17;-13.89;68.52
72202;SHT30;60105;54.956;73.412;2022-12-18T03:02:07;-13.99;69.46
72202;SHT30;60105;54.956;73.412;2022-12-18T03:04:39;-13.80;69.16
72202;SHT30;60105;54.956;73.412;2022-12-18T03:07:15;-13.74;68.79
72202;SHT30;60105;54.956;73.412;2022-12-18T03:09:48;-13.70;68.71
72202;SHT30;60105;54.956;73.412;2022-12-18T03:17:46;-13.66;68.57
72202;SHT30;60105;54.956;73.412;2022-12-18T03:20:17;-13.65;68.67
72202;SHT30;60105;54.956;73.412;2022-12-18T03:22:46;-13.65;68.86
72202;SHT30;60105;54.956;73.412;2022-12-18T03:25:17;-13.70;69.03
72202;SHT30;60105;54.956;73.412;2022-12-18T03:27:48;-13.67;68.47
72202;SHT30;60105;54.956;73.412;2022-12-18T03:30:17;-13.60;68.84
72202;SHT30;60105;54.956;73.412;2022-12-18T03:32:58;-13.51;68.49
72202;SHT30;60105;54.956;73.412;2022-12-18T03:35:31;-13.51;68.13
72202;SHT30;60105;54.956;73.412;2022-12-18T03:38:00;-13.53;67.98
72202;SHT30;60105;54.956;73.412;2022-12-18T03:40:50;-13.52;68.04
72202;SHT30;60105;54.956;73.412;2022-12-18T03:43:25;-13.55;68.24
72202;SHT30;60105;54.956;73.412;2022-12-18T03:45:57;-13.52;68.37
72202;SHT30;60105;54.956;73.412;2022-12-18T03:48:41;-13.59;68.64
72202;SHT30;60105;54.956;73.412;2022-12-18T03:51:19;-13.45;68.92
72202;SHT30;60105;54.956;73.412;2022-12-18T03:53:57;-13.55;68.59
72202;SHT30;60105;54.956;73.412;2022-12-18T03:56:32;-13.56;68.78
72202;SHT30;60105;54.956;73.412;2022-12-18T03:59:01;-13.55;68.74
72202;SHT30;60105;54.956;73.412;2022-12-18T04:01:38;-13.60;68.75
72202;SHT30;60105;54.956;73.412;2022-12-18T04:04:06;-13.53;68.67
72202;SHT30;60105;54.956;73.412;2022-12-18T04:06:38;-13.55;68.78
72202;SHT30;60105;54.956;73.412;2022-12-18T04:09:07;-13.52;68.73
72202;SHT30;60105;54.956;73.412;2022-12-18T04:11:40;-13.63;68.95
72202;SHT30;60105;54.956;73.412;2022-12-18T04:14:07;-13.70;69.40
72202;SHT30;60105;54.956;73.412;2022-12-18T04:16:36;-13.58;69.20
72202;SHT30;60105;54.956;73.412;2022-12-18T04:19:10;-13.58;69.25
72202;SHT30;60105;54.956;73.412;2022-12-18T04:21:40;-13.55;69.12
72202;SHT30;60105;54.956;73.412;2022-12-18T04:24:09;-13.63;69.06
72202;SHT30;60105;54.956;73.412;2022-12-18T04:26:38;-13.63;69.37
72202;SHT30;60105;54.956;73.412;2022-12-18T04:29:17;-13.69;69.01
72202;SHT30;60105;54.956;73.412;2022-12-18T04:31:43;-13.52;69.29
72202;SHT30;60105;54.956;73.412;2022-12-18T04:34:10;-13.58;68.89
72202;SHT30;60105;54.956;73.412;2022-12-18T04:36:42;-13.60;68.78
72202;SHT30;60105;54.956;73.412;2022-12-18T04:39:09;-13.53;68.90
72202;SHT30;60105;54.956;73.412;2022-12-18T04:41:35;-13.56;69.09
72202;SHT30;60105;54.956;73.412;2022-12-18T04:44:03;-13.56;69.21
72202;SHT30;60105;54.956;73.412;2022-12-18T04:46:30;-13.48;68.79
72202;SHT30;60105;54.956;73.412;2022-12-18T04:48:56;-13.51;68.42
72202;SHT30;60105;54.956;73.412;2022-12-18T04:51:22;-13.51;68.45
72202;SHT30;60105;54.956;73.412;2022-12-18T04:53:58;-13.46;68.67
72202;SHT30;60105;54.956;73.412;2022-12-18T04:56:25;-13.42;68.71
72202;SHT30;60105;54.956;73.412;2022-12-18T04:58:51;-13.42;68.47
72202;SHT30;60105;54.956;73.412;2022-12-18T05:01:23;-13.43;68.52
72202;SHT30;60105;54.956;73.412;2022-12-18T05:03:51;-13.32;68.25
72202;SHT30;60105;54.956;73.412;2022-12-18T05:06:17;-13.28;68.05
72202;SHT30;60105;54.956;73.412;2022-12-18T05:08:53;-13.17;67.91
72202;SHT30;60105;54.956;73.412;2022-12-18T05:11:20;-13.11;67.90
72202;SHT30;60105;54.956;73.412;2022-12-18T05:13:47;-13.03;67.30
72202;SHT30;60105;54.956;73.412;2022-12-18T05:16:13;-13.03;67.49
72202;SHT30;60105;54.956;73.412;2022-12-18T05:18:39;-13.04;67.48
72202;SHT30;60105;54.956;73.412;2022-12-18T05:21:06;-13.03;67.43
72202;SHT30;60105;54.956;73.412;2022-12-18T05:23:36;-12.84;67.17
72202;SHT30;60105;54.956;73.412;2022-12-18T05:26:04;-12.84;67.38
72202;SHT30;60105;54.956;73.412;2022-12-18T05:28:33;-12.81;67.53
72202;SHT30;60105;54.956;73.412;2022-12-18T05:31:00;-12.83;68.11
72202;SHT30;60105;54.956;73.412;2022-12-18T05:33:33;-12.76;67.78
72202;SHT30;60105;54.956;73.412;2022-12-18T05:36:01;-12.79;67.26
72202;SHT30;60105;54.956;73.412;2022-12-18T05:38:29;-12.62;67.24
72202;SHT30;60105;54.956;73.412;2022-12-18T05:40:56;-12.50;66.92
72202;SHT30;60105;54.956;73.412;2022-12-18T05:43:37;-12.49;66.68
72202;SHT30;60105;54.956;73.412;2022-12-18T05:46:08;-12.44;67.43
72202;SHT30;60105;54.956;73.412;2022-12-18T05:48:37;-12.41;66.92
72202;SHT30;60105;54.956;73.412;2022-12-18T05:51:08;-12.45;67.46
72202;SHT30;60105;54.956;73.412;2022-12-18T05:53:35;-12.35;67.26
72202;SHT30;60105;54.956;73.412;2022-12-18T05:56:04;-12.21;67.43
72202;SHT30;60105;54.956;73.412;2022-12-18T05:58:31;-12.11;66.90
72202;SHT30;60105;54.956;73.412;2022-12-18T06:01:05;-12.06;67.00
72202;SHT30;60105;54.956;73.412;2022-12-18T06:03:31;-11.97;66.40
72202;SHT30;60105;54.956;73.412;2022-12-18T06:05:57;-12.01;67.11
72202;SHT30;60105;54.956;73.412;2022-12-18T06:08:24;-11.89;67.12
72202;SHT30;60105;54.956;73.412;2022-12-18T06:10:51;-11.73;66.80
72202;SHT30;60105;54.956;73.412;2022-12-18T06:13:19;-11.67;66.47
72202;SHT30;60105;54.956;73.412;2022-12-18T06:15:46;-11.62;66.30
72202;SHT30;60105;54.956;73.412;2022-12-18T06:18:12;-11.70;66.41
72202;SHT30;60105;54.956;73.412;2022-12-18T06:20:38;-11.67;66.62
72202;SHT30;60105;54.956;73.412;2022-12-18T06:23:07;-11.43;66.56
72202;SHT30;60105;54.956;73.412;2022-12-18T06:25:38;-11.50;66.51
72202;SHT30;60105;54.956;73.412;2022-12-18T06:28:04;-11.32;66.57
72202;SHT30;60105;54.956;73.412;2022-12-18T06:30:31;-11.14;65.86
72202;SHT30;60105;54.956;73.412;2022-12-18T06:32:57;-11.05;65.61
72202;SHT30;60105;54.956;73.412;2022-12-18T06:35:23;-10.98;65.42
72202;SHT30;60105;54.956;73.412;2022-12-18T06:37:50;-10.96;65.12
72202;SHT30;60105;54.956;73.412;2022-12-18T06:40:16;-10.88;65.31
72202;SHT30;60105;54.956;73.412;2022-12-18T06:42:43;-10.77;64.94
72202;SHT30;60105;54.956;73.412;2022-12-18T06:45:09;-10.67;64.28
72202;SHT30;60105;54.956;73.412;2022-12-18T06:47:35;-10.54;64.63
72202;SHT30;60105;54.956;73.412;2022-12-18T06:50:02;-10.45;64.23
72202;SHT30;60105;54.956;73.412;2022-12-18T06:52:31;-10.29;64.35
72202;SHT30;60105;54.956;73.412;2022-12-18T06:54:57;-10.33;63.85
72202;SHT30;60105;54.956;73.412;2022-12-18T06:57:24;-10.40;64.45
72202;SHT30;60105;54.956;73.412;2022-12-18T06:59:54;-10.40;64.68
72202;SHT30;60105;54.956;73.412;2022-12-18T07:02:20;-10.24;64.19
72202;SHT30;60105;54.956;73.412;2022-12-18T07:04:46;-10.26;64.45
72202;SHT30;60105;54.956;73.412;2022-12-18T07:07:12;-10.24;64.35
72202;SHT30;60105;54.956;73.412;2022-12-18T07:09:38;-10.18;64.39
72202;SHT30;60105;54.956;73.412;2022-12-18T07:12:05;-10.25;64.12
72202;SHT30;60105;54.956;73.412;2022-12-18T07:14:32;-10.18;64.58
72202;SHT30;60105;54.956;73.412;2022-12-18T07:16:58;-10.19;64.71
72202;SHT30;60105;54.956;73.412;2022-12-18T07:19:25;-10.17;64.88
72202;SHT30;60105;54.956;73.412;2022-12-18T07:21:51;-10.19;65.04
72202;SHT30;60105;54.956;73.412;2022-12-18T07:24:17;-9.93;64.81
72202;SHT30;60105;54.956;73.412;2022-12-18T07:26:46;-9.82;64.93
72202;SHT30;60105;54.956;73.412;2022-12-18T07:29:22;-9.67;64.55
72202;SHT30;60105;54.956;73.412;2022-12-18T07:31:48;-9.60;63.95
72202;SHT30;60105;54.956;73.412;2022-12-18T07:34:14;-9.63;63.92
72202;SHT30;60105;54.956;73.412;2022-12-18T07:36:51;-9.78;64.52
72202;SHT30;60105;54.956;73.412;2022-12-18T07:39:17;-9.77;65.04
72202;SHT30;60105;54.956;73.412;2022-12-18T07:41:43;-9.73;65.19
72202;SHT30;60105;54.956;73.412;2022-12-18T07:44:30;-9.15;64.34
72202;SHT30;60105;54.956;73.412;2022-12-18T07:46:56;-8.78;62.20
72202;SHT30;60105;54.956;73.412;2022-12-18T07:49:32;-9.07;62.63
72202;SHT30;60105;54.956;73.412;2022-12-18T07:52:08;-8.99;63.14
72202;SHT30;60105;54.956;73.412;2022-12-18T07:54:40;-8.99;63.63
72202;SHT30;60105;54.956;73.412;2022-12-18T07:57:07;-8.77;63.15
72202;SHT30;60105;54.956;73.412;2022-12-18T07:59:40;-8.61;62.76
72202;SHT30;60105;54.956;73.412;2022-12-18T08:02:06;-8.41;62.22
72202;SHT30;60105;54.956;73.412;2022-12-18T08:04:32;-8.30;61.40
72202;SHT30;60105;54.956;73.412;2022-12-18T08:06:59;-8.41;61.86
72202;SHT30;60105;54.956;73.412;2022-12-18T08:09:25;-8.49;62.17
72202;SHT30;60105;54.956;73.412;2022-12-18T08:11:51;-8.40;62.54
72202;SHT30;60105;54.956;73.412;2022-12-18T08:14:22;-8.44;62.56
72202;SHT30;60105;54.956;73.412;2022-12-18T08:16:49;-8.43;62.70
72202;SHT30;60105;54.956;73.412;2022-12-18T08:19:15;-8.32;62.18
72202;SHT30;60105;54.956;73.412;2022-12-18T08:21:41;-8.28;62.22
72202;SHT30;60105;54.956;73.412;2022-12-18T08:24:09;-8.05;61.65
72202;SHT30;60105;54.956;73.412;2022-12-18T08:26:36;-8.01;61.08
72202;SHT30;60105;54.956;73.412;2022-12-18T08:29:03;-8.20;61.72
72202;SHT30;60105;54.956;73.412;2022-12-18T08:31:30;-8.26;62.28
72202;SHT30;60105;54.956;73.412;2022-12-18T08:33:57;-8.39;63.11
72202;SHT30;60105;54.956;73.412;2022-12-18T08:36:24;-8.43;63.49
72202;SHT30;60105;54.956;73.412;2022-12-18T08:38:50;-8.41;63.51
72202;SHT30;60105;54.956;73.412;2022-12-18T08:41:17;-8.33;63.26
72202;SHT30;60105;54.956;73.412;2022-12-18T08:43:44;-8.39;63.79
72202;SHT30;60105;54.956;73.412;2022-12-18T08:46:34;-8.40;63.81
72202;SHT30;60105;54.956;73.412;2022-12-18T08:49:01;-8.30;63.74
72202;SHT30;60105;54.956;73.412;2022-12-18T08:51:27;-8.37;63.66
72202;SHT30;60105;54.956;73.412;2022-12-18T08:53:54;-8.39;63.75
72202;SHT30;60105;54.956;73.412;2022-12-18T08:56:20;-8.37;63.86
72202;SHT30;60105;54.956;73.412;2022-12-18T08:58:54;-8.36;63.74
72202;SHT30;60105;54.956;73.412;2022-12-18T09:01:22;-8.41;63.65
72202;SHT30;60105;54.956;73.412;2022-12-18T09:03:49;-8.57;63.88
72202;SHT30;60105;54.956;73.412;2022-12-18T09:06:21;-8.60;64.07
72202;SHT30;60105;54.956;73.412;2022-12-18T09:08:48;-8.72;64.19
72202;SHT30;60105;54.956;73.412;2022-12-18T09:11:24;-8.68;64.51
72202;SHT30;60105;54.956;73.412;2022-12-18T09:13:51;-8.85;64.91
72202;SHT30;60105;54.956;73.412;2022-12-18T09:16:29;-8.76;65.01
72202;SHT30;60105;54.956;73.412;2022-12-18T09:18:55;-8.78;64.71
72202;SHT30;60105;54.956;73.412;2022-12-18T09:21:27;-8.80;65.31
72202;SHT30;60105;54.956;73.412;2022-12-18T09:23:54;-8.94;65.74
72202;SHT30;60105;54.956;73.412;2022-12-18T09:26:23;-8.95;65.77
72202;SHT30;60105;54.956;73.412;2022-12-18T09:28:50;-8.97;65.93
72202;SHT30;60105;54.956;73.412;2022-12-18T09:31:17;-8.87;65.66
72202;SHT30;60105;54.956;73.412;2022-12-18T09:33:55;-8.94;65.64
72202;SHT30;60105;54.956;73.412;2022-12-18T09:36:27;-8.94;66.00
72202;SHT30;60105;54.956;73.412;2022-12-18T09:38:53;-9.01;65.97
72202;SHT30;60105;54.956;73.412;2022-12-18T09:41:45;-8.97;66.09
72202;SHT30;60105;54.956;73.412;2022-12-18T09:49:52;-9.09;66.34
72202;SHT30;60105;54.956;73.412;2022-12-18T09:52:35;-9.28;66.88
72202;SHT30;60105;54.956;73.412;2022-12-18T09:55:31;-9.25;66.50
72202;SHT30;60105;54.956;73.412;2022-12-18T10:00:44;-9.18;65.41
72202;SHT30;60105;54.956;73.412;2022-12-18T10:03:12;-9.18;65.36
72202;SHT30;60105;54.956;73.412;2022-12-18T10:05:54;-9.18;65.04
72202;SHT30;60105;54.956;73.412;2022-12-18T10:08:42;-9.30;65.11
72202;SHT30;60105;54.956;73.412;2022-12-18T10:19:07;-9.44;65.95
72202;SHT30;60105;54.956;73.412;2022-12-18T10:21:51;-9.43;66.03
72202;SHT30;60105;54.956;73.412;2022-12-18T10:27:25;-9.54;65.86
72202;SHT30;60105;54.956;73.412;2022-12-18T10:29:53;-9.54;65.40
72202;SHT30;60105;54.956;73.412;2022-12-18T10:32:23;-9.56;65.57
72202;SHT30;60105;54.956;73.412;2022-12-18T10:34:52;-9.60;65.74
72202;SHT30;60105;54.956;73.412;2022-12-18T10:37:25;-9.60;65.95
72202;SHT30;60105;54.956;73.412;2022-12-18T10:40:12;-9.69;65.78
72202;SHT30;60105;54.956;73.412;2022-12-18T10:42:40;-9.81;66.22
72202;SHT30;60105;54.956;73.412;2022-12-18T10:45:13;-9.85;66.45
72202;SHT30;60105;54.956;73.412;2022-12-18T10:47:48;-9.84;66.22
72202;SHT30;60105;54.956;73.412;2022-12-18T10:50:35;-9.90;66.39
72202;SHT30;60105;54.956;73.412;2022-12-18T10:53:04;-9.91;66.16
72202;SHT30;60105;54.956;73.412;2022-12-18T10:55:44;-10.00;66.45
72202;SHT30;60105;54.956;73.412;2022-12-18T10:58:35;-10.04;66.28
72202;SHT30;60105;54.956;73.412;2022-12-18T11:01:14;-10.00;66.24
72202;SHT30;60105;54.956;73.412;2022-12-18T11:06:19;-10.29;67.11
72202;SHT30;60105;54.956;73.412;2022-12-18T11:09:20;-10.40;67.33
72202;SHT30;60105;54.956;73.412;2022-12-18T11:11:57;-10.42;68.10
72202;SHT30;60105;54.956;73.412;2022-12-18T11:14:50;-10.35;67.57
72202;SHT30;60105;54.956;73.412;2022-12-18T11:17:34;-10.46;68.42
72202;SHT30;60105;54.956;73.412;2022-12-18T11:20:04;-10.48;68.53
72202;SHT30;60105;54.956;73.412;2022-12-18T11:22:36;-10.35;68.02
72202;SHT30;60105;54.956;73.412;2022-12-18T11:27:58;-10.39;68.41
72202;SHT30;60105;54.956;73.412;2022-12-18T11:30:36;-10.33;68.18
72202;SHT30;60105;54.956;73.412;2022-12-18T11:33:19;-10.22;68.05
72202;SHT30;60105;54.956;73.412;2022-12-18T11:35:52;-10.26;68.53
72202;SHT30;60105;54.956;73.412;2022-12-18T11:38:23;-10.17;67.99
72202;SHT30;60105;54.956;73.412;2022-12-18T11:41:00;-10.18;68.11
72202;SHT30;60105;54.956;73.412;2022-12-18T11:43:38;-10.12;68.01
72202;SHT30;60105;54.956;73.412;2022-12-18T11:46:36;-10.07;68.31
72202;SHT30;60105;54.956;73.412;2022-12-18T11:54:14;-9.70;67.61
72202;SHT30;60105;54.956;73.412;2022-12-18T11:56:58;-9.64;67.32
72202;SHT30;60105;54.956;73.412;2022-12-18T12:03:06;-9.47;66.22
72202;SHT30;60105;54.956;73.412;2022-12-18T12:05:45;-9.42;66.26
72202;SHT30;60105;54.956;73.412;2022-12-18T12:08:47;-9.43;66.48
72202;SHT30;60105;54.956;73.412;2022-12-18T12:11:20;-9.43;66.57
72202;SHT30;60105;54.956;73.412;2022-12-18T12:22:36;-9.02;66.23
72202;SHT30;60105;54.956;73.412;2022-12-18T12:25:33;-9.01;66.23
72202;SHT30;60105;54.956;73.412;2022-12-18T12:30:48;-9.07;66.72
72202;SHT30;60105;54.956;73.412;2022-12-18T12:38:53;-8.76;66.25
72202;SHT30;60105;54.956;73.412;2022-12-18T12:41:31;-8.74;66.09
72202;SHT30;60105;54.956;73.412;2022-12-18T12:44:27;-8.74;65.86
72202;SHT30;60105;54.956;73.412;2022-12-18T12:46:59;-8.80;65.60
72202;SHT30;60105;54.956;73.412;2022-12-18T12:49:29;-8.87;65.20
72202;SHT30;60105;54.956;73.412;2022-12-18T12:52:12;-8.95;65.06
72202;SHT30;60105;54.956;73.412;2022-12-18T12:54:40;-8.97;64.81
72202;SHT30;60105;54.956;73.412;2022-12-18T12:57:30;-9.07;64.57
72202;SHT30;60105;54.956;73.412;2022-12-18T13:00:07;-9.05;64.24
72202;SHT30;60105;54.956;73.412;2022-12-18T13:02:59;-9.25;64.07
72202;SHT30;60105;54.956;73.412;2022-12-18T13:05:53;-9.38;63.89
72202;SHT30;60105;54.956;73.412;2022-12-18T13:10:49;-9.60;64.72
72202;SHT30;60105;54.956;73.412;2022-12-18T13:13:53;-9.60;64.86
72202;SHT30;60105;54.956;73.412;2022-12-18T13:16:24;-9.63;64.87
72202;SHT30;60105;54.956;73.412;2022-12-18T13:18:57;-9.64;64.93
72202;SHT30;60105;54.956;73.412;2022-12-18T13:21:31;-9.66;64.87
72202;SHT30;60105;54.956;73.412;2022-12-18T13:24:27;-9.69;64.54
72202;SHT30;60105;54.956;73.412;2022-12-18T13:26:54;-9.64;64.20
72202;SHT30;60105;54.956;73.412;2022-12-18T13:29:44;-9.85;64.52
72202;SHT30;60105;54.956;73.412;2022-12-18T13:32:24;-10.01;65.53
72202;SHT30;60105;54.956;73.412;2022-12-18T13:37:52;-10.18;65.99
72202;SHT30;60105;54.956;73.412;2022-12-18T13:51:55;-10.11;65.19
72202;SHT30;60105;54.956;73.412;2022-12-18T13:54:39;-10.19;65.60
72202;SHT30;60105;54.956;73.412;2022-12-18T13:57:28;-10.15;65.10
72202;SHT30;60105;54.956;73.412;2022-12-18T13:59:56;-10.28;65.62
72202;SHT30;60105;54.956;73.412;2022-12-18T14:02:28;-10.07;65.24
72202;SHT30;60105;54.956;73.412;2022-12-18T14:04:55;-10.12;65.13
72202;SHT30;60105;54.956;73.412;2022-12-18T14:07:28;-10.21;65.04
72202;SHT30;60105;54.956;73.412;2022-12-18T14:09:57;-10.17;65.45
72202;SHT30;60105;54.956;73.412;2022-12-18T14:12:27;-10.18;65.58
72202;SHT30;60105;54.956;73.412;2022-12-18T14:20:44;-10.15;65.53
72202;SHT30;60105;54.956;73.412;2022-12-18T14:23:44;-10.11;65.85
72202;SHT30;60105;54.956;73.412;2022-12-18T14:26:27;-10.15;65.91
72202;SHT30;60105;54.956;73.412;2022-12-18T14:29:00;-10.17;66.70
72202;SHT30;60105;54.956;73.412;2022-12-18T14:31:30;-10.05;66.25
72202;SHT30;60105;54.956;73.412;2022-12-18T14:33:57;-9.94;66.28
72202;SHT30;60105;54.956;73.412;2022-12-18T14:36:28;-10.04;66.19
72202;SHT30;60105;54.956;73.412;2022-12-18T14:38:57;-10.08;66.21
72202;SHT30;60105;54.956;73.412;2022-12-18T14:41:25;-10.02;66.71
72202;SHT30;60105;54.956;73.412;2022-12-18T14:43:53;-9.97;66.47
72202;SHT30;60105;54.956;73.412;2022-12-18T14:46:40;-10.07;67.13
72202;SHT30;60105;54.956;73.412;2022-12-18T14:49:31;-10.14;67.22
72202;SHT30;60105;54.956;73.412;2022-12-18T14:52:03;-10.02;68.00
72202;SHT30;60105;54.956;73.412;2022-12-18T14:54:31;-9.85;67.18
72202;SHT30;60105;54.956;73.412;2022-12-18T14:57:20;-9.84;66.94
72202;SHT30;60105;54.956;73.412;2022-12-18T14:59:47;-9.97;67.19
72202;SHT30;60105;54.956;73.412;2022-12-18T15:05:19;-9.74;66.38
72202;SHT30;60105;54.956;73.412;2022-12-18T15:07:48;-9.81;66.68
72202;SHT30;60105;54.956;73.412;2022-12-18T15:10:27;-9.80;67.20
72202;SHT30;60105;54.956;73.412;2022-12-18T15:18:04;-9.84;67.71
72202;SHT30;60105;54.956;73.412;2022-12-18T15:20:49;-9.73;67.72
72202;SHT30;60105;54.956;73.412;2022-12-18T15:23:26;-9.77;68.08
72202;SHT30;60105;54.956;73.412;2022-12-18T15:26:06;-9.66;68.11
72202;SHT30;60105;54.956;73.412;2022-12-18T15:34:14;-9.51;67.76
72202;SHT30;60105;54.956;73.412;2022-12-18T15:36:50;-9.54;67.54
72202;SHT30;60105;54.956;73.412;2022-12-18T15:39:17;-9.46;67.36
72202;SHT30;60105;54.956;73.412;2022-12-18T15:41:43;-9.44;67.16
72202;SHT30;60105;54.956;73.412;2022-12-18T15:44:35;-9.36;67.66
72202;SHT30;60105;54.956;73.412;2022-12-18T15:47:12;-9.26;67.20
72202;SHT30;60105;54.956;73.412;2022-12-18T15:49:44;-9.44;67.41
72202;SHT30;60105;54.956;73.412;2022-12-18T15:52:13;-9.47;68.23
72202;SHT30;60105;54.956;73.412;2022-12-18T15:54:39;-9.32;67.99
72202;SHT30;60105;54.956;73.412;2022-12-18T15:57:24;-9.29;67.77
72202;SHT30;60105;54.956;73.412;2022-12-18T15:59:55;-9.30;67.88
72202;SHT30;60105;54.956;73.412;2022-12-18T16:02:24;-9.30;67.95
72202;SHT30;60105;54.956;73.412;2022-12-18T16:04:53;-9.33;67.44
72202;SHT30;60105;54.956;73.412;2022-12-18T16:07:20;-9.36;68.20
72202;SHT30;60105;54.956;73.412;2022-12-18T16:09:47;-9.33;68.38
72202;SHT30;60105;54.956;73.412;2022-12-18T16:12:19;-9.21;67.87
72202;SHT30;60105;54.956;73.412;2022-12-18T16:14:47;-9.29;68.05
72202;SHT30;60105;54.956;73.412;2022-12-18T16:17:18;-9.21;67.90
72202;SHT30;60105;54.956;73.412;2022-12-18T16:19:45;-9.16;68.11
72202;SHT30;60105;54.956;73.412;2022-12-18T16:22:24;-9.18;68.14
72202;SHT30;60105;54.956;73.412;2022-12-18T16:24:52;-9.16;68.81
72202;SHT30;60105;54.956;73.412;2022-12-18T16:27:19;-9.25;69.10
72202;SHT30;60105;54.956;73.412;2022-12-18T16:29:45;-9.09;69.16
72202;SHT30;60105;54.956;73.412;2022-12-18T16:32:15;-9.05;69.12
72202;SHT30;60105;54.956;73.412;2022-12-18T16:34:41;-9.09;69.29
72202;SHT30;60105;54.956;73.412;2022-12-18T16:37:09;-9.08;69.60
72202;SHT30;60105;54.956;73.412;2022-12-18T16:39:36;-8.95;69.81
72202;SHT30;60105;54.956;73.412;2022-12-18T16:42:14;-8.77;68.78
72202;SHT30;60105;54.956;73.412;2022-12-18T16:44:43;-8.80;68.37
72202;SHT30;60105;54.956;73.412;2022-12-18T16:47:09;-8.70;68.34
72202;SHT30;60105;54.956;73.412;2022-12-18T16:49:36;-8.84;68.13
72202;SHT30;60105;54.956;73.412;2022-12-18T16:52:03;-8.76;68.48
72202;SHT30;60105;54.956;73.412;2022-12-18T16:54:30;-8.84;68.69
72202;SHT30;60105;54.956;73.412;2022-12-18T16:56:56;-8.81;68.86
72202;SHT30;60105;54.956;73.412;2022-12-18T16:59:28;-8.72;68.41
72202;SHT30;60105;54.956;73.412;2022-12-18T17:02:04;-8.84;69.39
72202;SHT30;60105;54.956;73.412;2022-12-18T17:04:31;-8.80;69.42
72202;SHT30;60105;54.956;73.412;2022-12-18T17:06:57;-8.87;69.76
72202;SHT30;60105;54.956;73.412;2022-12-18T17:09:23;-8.70;69.42
72202;SHT30;60105;54.956;73.412;2022-12-18T17:11:53;-8.56;68.76
72202;SHT30;60105;54.956;73.412;2022-12-18T17:14:22;-8.54;68.78
72202;SHT30;60105;54.956;73.412;2022-12-18T17:16:54;-8.50;69.13
72202;SHT30;60105;54.956;73.412;2022-12-18T17:19:23;-8.32;68.70
72202;SHT30;60105;54.956;73.412;2022-12-18T17:21:55;-8.36;68.56
72202;SHT30;60105;54.956;73.412;2022-12-18T17:24:32;-8.23;68.91
72202;SHT30;60105;54.956;73.412;2022-12-18T17:26:58;-8.08;68.24
72202;SHT30;60105;54.956;73.412;2022-12-18T17:29:25;-8.20;68.47